createdAt,value
2023-02-06T00:01:25.094Z,24.15
2023-02-06T00:03:57.600Z,24.58
2023-02-06T00:06:29.589Z,23.92
2023-02-06T00:09:02.257Z,25.17
2023-02-06T00:11:35.463Z,26.20
2023-02-06T00:14:07.654Z,24.25
2023-02-06T00:16:39.677Z,26.67
2023-02-06T00:19:11.743Z,24.83
2023-02-06T00:21:43.889Z,24.20
2023-02-06T00:24:16.026Z,24.58
2023-02-06T00:26:48.131Z,24.70
2023-02-06T00:29:20.163Z,25.83
2023-02-06T00:31:52.266Z,26.92
2023-02-06T00:34:24.621Z,25.27
2023-02-06T00:36:56.720Z,25.33
2023-02-06T00:39:28.998Z,25.52
2023-02-06T00:42:01.102Z,25.75
2023-02-06T00:44:33.786Z,23.85
2023-02-06T00:47:05.827Z,24.35
2023-02-06T00:49:37.763Z,24.42
2023-02-06T00:52:09.908Z,23.17
2023-02-06T00:54:41.870Z,23.67
2023-02-06T00:57:13.836Z,25.30
2023-02-06T00:59:46.090Z,26.48
2023-02-06T01:02:18.084Z,24.83
2023-02-06T01:04:50.177Z,25.08
2023-02-06T01:07:22.180Z,26.35
2023-02-06T01:09:54.249Z,24.45
2023-02-06T01:12:26.264Z,24.73
2023-02-06T01:14:58.524Z,26.10
2023-02-06T01:17:33.029Z,26.50
2023-02-06T01:20:07.155Z,25.77
2023-02-06T01:22:41.907Z,25.70
2023-02-06T01:25:13.976Z,25.27
2023-02-06T01:27:46.177Z,27.13
2023-02-06T01:30:18.353Z,25.70
2023-02-06T01:32:50.428Z,26.65
2023-02-06T01:35:22.547Z,25.65
2023-02-06T01:37:54.692Z,25.75
2023-02-06T01:40:26.731Z,26.20
2023-02-06T01:42:58.726Z,25.02
2023-02-06T01:45:41.298Z,29.05
2023-02-06T01:48:19.379Z,26.80
2023-02-06T01:50:58.673Z,26.50
2023-02-06T01:53:32.327Z,26.13
2023-02-06T01:56:07.065Z,27.08
2023-02-06T01:58:44.569Z,25.80
2023-02-06T02:01:20.978Z,27.20
2023-02-06T02:03:56.452Z,26.08
2023-02-06T02:06:35.628Z,27.52
2023-02-06T02:09:08.195Z,26.52
2023-02-06T02:11:41.911Z,26.25
2023-02-06T02:14:15.539Z,27.10
2023-02-06T02:17:10.149Z,27.67
2023-02-06T02:20:28.392Z,27.23
2023-02-06T02:23:26.508Z,26.65
2023-02-06T02:26:46.268Z,28.20
2023-02-06T02:29:57.333Z,27.42
2023-02-06T02:33:07.734Z,30.83
2023-02-06T02:36:05.467Z,27.98
2023-02-06T02:39:14.543Z,29.38
2023-02-06T02:42:14.422Z,26.27
2023-02-06T02:45:39.290Z,26.60
2023-02-06T02:48:25.301Z,27.25
2023-02-06T02:51:01.531Z,28.50
2023-02-06T02:53:33.800Z,30.15
2023-02-06T02:56:21.023Z,26.77
2023-02-06T02:59:23.810Z,26.63
2023-02-06T03:02:12.620Z,27.08
2023-02-06T03:05:05.733Z,25.70
2023-02-06T03:08:06.502Z,28.10
2023-02-06T03:11:13.852Z,26.80
2023-02-06T03:14:04.345Z,25.55
2023-02-06T03:16:51.965Z,28.13
2023-02-06T03:19:35.658Z,26.52
2023-02-06T03:22:14.428Z,26.30
2023-02-06T03:24:57.053Z,26.15
2023-02-06T03:27:31.230Z,27.02
2023-02-06T03:30:06.168Z,26.55
2023-02-06T03:32:47.268Z,25.80
2023-02-06T03:35:25.810Z,25.25
2023-02-06T03:38:04.049Z,28.15
2023-02-06T03:40:40.980Z,26.40
2023-02-06T03:43:18.876Z,25.25
2023-02-06T03:46:00.423Z,26.85
2023-02-06T03:48:40.479Z,27.83
2023-02-06T03:51:21.184Z,28.02
2023-02-06T03:54:00.910Z,26.00
2023-02-06T03:56:52.815Z,24.92
2023-02-06T03:59:27.787Z,28.70
2023-02-06T04:02:03.626Z,25.75
2023-02-06T04:04:42.302Z,27.63
2023-02-06T04:07:18.621Z,29.52
2023-02-06T04:09:55.537Z,28.88
2023-02-06T04:12:27.586Z,26.25
2023-02-06T04:14:59.520Z,29.10
2023-02-06T04:17:46.446Z,28.25
2023-02-06T04:20:23.963Z,27.58
2023-02-06T04:22:56.387Z,25.48
2023-02-06T04:25:29.265Z,28.58
2023-02-06T04:28:16.627Z,29.25
2023-02-06T04:30:48.753Z,29.50
2023-02-06T04:33:20.897Z,27.83
2023-02-06T04:35:53.035Z,28.13
2023-02-06T04:38:25.071Z,28.73
2023-02-06T04:41:05.899Z,28.77
2023-02-06T04:43:38.517Z,28.08
2023-02-06T04:46:10.514Z,27.77
2023-02-06T04:48:42.684Z,26.92
2023-02-06T04:51:14.719Z,28.15
2023-02-06T04:53:46.833Z,28.92
2023-02-06T04:56:21.266Z,27.88
2023-02-06T04:58:53.431Z,28.40
2023-02-06T05:01:25.930Z,29.08
2023-02-06T05:03:57.902Z,27.15
2023-02-06T05:06:31.198Z,31.33
2023-02-06T05:09:04.385Z,29.13
2023-02-06T05:11:36.508Z,27.42
2023-02-06T05:14:08.496Z,28.60
2023-02-06T05:16:40.518Z,29.48
2023-02-06T05:19:12.664Z,27.25
2023-02-06T05:21:44.650Z,29.83
2023-02-06T05:24:16.820Z,27.10
2023-02-06T05:27:02.187Z,27.70
2023-02-06T05:29:34.218Z,30.00
2023-02-06T05:32:06.334Z,27.52
2023-02-06T05:34:38.337Z,26.95
2023-02-06T05:37:10.702Z,26.17
2023-02-06T05:39:42.924Z,27.15
2023-02-06T05:42:14.889Z,26.25
2023-02-06T05:44:46.849Z,25.92
2023-02-06T05:47:19.096Z,26.45
2023-02-06T05:49:51.434Z,26.38
2023-02-06T05:52:23.607Z,27.17
2023-02-06T05:54:55.671Z,27.23
2023-02-06T05:57:27.718Z,25.33
2023-02-06T05:59:59.732Z,26.05
2023-02-06T06:02:32.217Z,27.75
2023-02-06T06:05:04.880Z,27.00
2023-02-06T06:07:37.353Z,26.25
2023-02-06T06:10:09.769Z,25.90
2023-02-06T06:12:41.792Z,29.17
2023-02-06T06:15:13.836Z,27.80
2023-02-06T06:17:45.974Z,26.80
2023-02-06T06:20:18.024Z,27.23
2023-02-06T06:22:50.173Z,26.23
2023-02-06T06:25:22.241Z,24.42
2023-02-06T06:27:54.183Z,26.25
2023-02-06T06:30:26.329Z,25.55
2023-02-06T06:32:58.547Z,24.83
2023-02-06T06:35:30.661Z,28.10
2023-02-06T06:38:02.834Z,24.45
2023-02-06T06:40:34.905Z,24.90
2023-02-06T06:43:06.934Z,25.65
2023-02-06T06:45:39.425Z,26.40
2023-02-06T06:48:11.645Z,25.75
2023-02-06T06:50:43.836Z,27.30
2023-02-06T06:53:16.121Z,27.48
2023-02-06T06:55:48.184Z,24.27
2023-02-06T06:58:21.108Z,26.70
2023-02-06T07:00:53.732Z,24.45
2023-02-06T07:03:29.967Z,23.70
2023-02-06T07:06:02.286Z,23.70
2023-02-06T07:08:40.439Z,23.13
2023-02-06T07:11:15.347Z,22.48
2023-02-06T07:13:48.069Z,22.10
2023-02-06T07:16:20.260Z,21.38
2023-02-06T07:18:52.392Z,20.73
2023-02-06T07:21:24.457Z,21.05
2023-02-06T07:23:56.586Z,20.08
2023-02-06T07:26:28.898Z,18.55
2023-02-06T07:29:01.044Z,19.45
2023-02-06T07:31:33.090Z,18.00
2023-02-06T07:34:05.270Z,19.00
2023-02-06T07:36:38.022Z,18.08
2023-02-06T07:39:10.008Z,19.13
2023-02-06T07:41:42.843Z,18.67
2023-02-06T07:44:17.258Z,17.13
2023-02-06T07:46:49.422Z,18.08
2023-02-06T07:49:23.995Z,17.55
2023-02-06T07:51:56.373Z,17.10
2023-02-06T07:54:28.600Z,17.10
2023-02-06T07:57:00.886Z,18.67
2023-02-06T07:59:32.974Z,17.38
2023-02-06T08:02:05.102Z,19.25
2023-02-06T08:04:37.695Z,19.27
2023-02-06T08:07:14.861Z,18.35
2023-02-06T08:09:48.202Z,18.30
2023-02-06T08:12:20.244Z,18.80
2023-02-06T08:14:52.514Z,16.40
2023-02-06T08:17:24.823Z,17.23
2023-02-06T08:20:02.791Z,18.95
2023-02-06T08:22:35.443Z,15.90
2023-02-06T08:25:08.834Z,17.55
2023-02-06T08:27:41.155Z,16.95
2023-02-06T08:30:13.787Z,17.05
2023-02-06T08:32:45.923Z,17.00
2023-02-06T08:35:18.093Z,17.52
2023-02-06T08:37:50.147Z,16.25
2023-02-06T08:40:22.360Z,16.75
2023-02-06T08:42:54.317Z,16.80
2023-02-06T08:45:26.416Z,15.55
2023-02-06T08:47:58.704Z,14.13
2023-02-06T08:50:30.857Z,15.63
2023-02-06T08:53:03.240Z,14.38
2023-02-06T08:55:35.284Z,15.65
2023-02-06T08:58:07.741Z,15.18
2023-02-06T09:00:39.772Z,15.60
2023-02-06T09:03:12.094Z,14.57
2023-02-06T09:05:44.416Z,14.63
2023-02-06T09:08:17.062Z,13.80
2023-02-06T09:10:49.129Z,13.18
2023-02-06T09:13:21.603Z,12.98
2023-02-06T09:16:05.633Z,14.00
2023-02-06T09:18:38.113Z,13.95
2023-02-06T09:21:17.240Z,13.63
2023-02-06T09:23:54.203Z,13.70
2023-02-06T09:26:31.354Z,12.77
2023-02-06T09:29:09.544Z,11.85
2023-02-06T09:31:43.395Z,10.85
2023-02-06T09:34:15.595Z,10.88
2023-02-06T09:36:47.832Z,11.32
2023-02-06T09:39:20.148Z,12.27
2023-02-06T09:42:11.501Z,12.18
2023-02-06T09:45:07.185Z,10.60
2023-02-06T09:47:52.360Z,11.52
2023-02-06T09:50:55.871Z,11.82
2023-02-06T09:54:00.118Z,11.57
2023-02-06T09:56:46.319Z,9.20
2023-02-06T10:00:11.466Z,12.57
2023-02-06T10:03:11.135Z,12.23
2023-02-06T10:06:19.265Z,12.35
2023-02-06T10:09:04.582Z,11.95
2023-02-06T10:11:57.988Z,9.23
2023-02-06T10:14:54.739Z,9.43
2023-02-06T10:17:35.623Z,11.43
2023-02-06T10:20:36.153Z,11.10
2023-02-06T10:23:47.434Z,8.30
2023-02-06T10:26:28.689Z,7.50
2023-02-06T10:29:00.805Z,6.90
2023-02-06T10:32:15.764Z,6.60
2023-02-06T10:35:37.188Z,7.00
2023-02-06T10:38:33.278Z,7.82
2023-02-06T10:41:35.313Z,7.80
2023-02-06T10:44:51.529Z,8.35
2023-02-06T10:47:55.770Z,7.72
2023-02-06T10:51:10.026Z,9.02
2023-02-06T10:54:31.678Z,7.93
2023-02-06T10:57:19.342Z,6.95
2023-02-06T10:59:58.602Z,5.78
2023-02-06T11:03:06.208Z,6.20
2023-02-06T11:05:45.270Z,6.22
2023-02-06T11:08:27.319Z,6.10
2023-02-06T11:11:19.364Z,6.53
2023-02-06T11:14:13.422Z,6.68
2023-02-06T11:16:51.367Z,6.60
2023-02-06T11:19:34.497Z,6.28
2023-02-06T11:22:09.458Z,5.93
2023-02-06T11:25:10.352Z,8.23
2023-02-06T11:28:12.022Z,6.55
2023-02-06T11:30:59.584Z,6.38
2023-02-06T11:33:56.695Z,6.80
2023-02-06T11:36:32.778Z,6.65
2023-02-06T11:39:27.618Z,6.65
2023-02-06T11:42:19.147Z,6.80
2023-02-06T11:44:53.916Z,6.68
2023-02-06T11:47:38.032Z,6.97
2023-02-06T11:50:13.202Z,6.80
2023-02-06T11:53:16.706Z,7.00
2023-02-06T11:56:05.976Z,7.15
2023-02-06T11:59:19.534Z,6.63
2023-02-06T12:01:54.487Z,6.72
2023-02-06T12:04:39.133Z,7.00
2023-02-06T12:07:37.940Z,6.85
2023-02-06T12:10:17.290Z,6.40
2023-02-06T12:12:55.584Z,5.93
2023-02-06T12:15:48.444Z,6.43
2023-02-06T12:18:26.209Z,6.78
2023-02-06T12:21:31.993Z,7.32
2023-02-06T12:24:20.929Z,7.65
2023-02-06T12:27:05.476Z,7.45
2023-02-06T12:30:01.933Z,6.18
2023-02-06T12:33:15.678Z,6.60
2023-02-06T12:36:20.852Z,7.22
2023-02-06T12:39:00.786Z,6.78
2023-02-06T12:42:14.699Z,6.45
2023-02-06T12:45:27.538Z,5.90
2023-02-06T12:48:21.638Z,5.95
2023-02-06T12:51:06.754Z,6.63
2023-02-06T12:54:01.714Z,6.70
2023-02-06T12:56:52.528Z,6.35
2023-02-06T13:00:13.435Z,7.10
2023-02-06T13:03:26.244Z,6.97
2023-02-06T13:06:16.041Z,7.88
2023-02-06T13:09:01.089Z,7.53
2023-02-06T13:11:40.741Z,6.85
2023-02-06T13:14:18.735Z,6.55
2023-02-06T13:17:06.935Z,5.82
2023-02-06T13:19:48.270Z,6.13
2023-02-06T13:22:45.178Z,6.32
2023-02-06T13:25:37.400Z,6.00
2023-02-06T13:28:25.604Z,6.40
2023-02-06T13:31:27.865Z,6.28
2023-02-06T13:34:03.177Z,5.47
2023-02-06T13:36:49.322Z,5.30
2023-02-06T13:39:36.237Z,5.47
2023-02-06T13:42:32.965Z,5.80
2023-02-06T13:45:28.429Z,5.22
2023-02-06T13:48:30.865Z,4.32
2023-02-06T13:51:22.829Z,4.30
2023-02-06T13:54:52.228Z,4.45
2023-02-06T13:58:12.340Z,4.93
2023-02-06T14:01:11.683Z,4.15
2023-02-06T14:03:58.207Z,4.65
2023-02-06T14:06:43.302Z,4.57
2023-02-06T14:09:44.561Z,4.55
2023-02-06T14:12:58.262Z,4.28
2023-02-06T14:16:27.889Z,4.03
2023-02-06T14:19:17.807Z,4.38
2023-02-06T14:22:24.344Z,4.00
2023-02-06T14:25:24.272Z,3.97
2023-02-06T14:28:38.388Z,3.67
2023-02-06T14:31:46.553Z,4.20
2023-02-06T14:35:12.607Z,4.85
2023-02-06T14:38:04.050Z,4.80
2023-02-06T14:40:55.093Z,4.50
2023-02-06T14:43:32.661Z,4.50
2023-02-06T14:46:14.509Z,4.65
2023-02-06T14:48:56.083Z,4.65
2023-02-06T14:51:36.497Z,4.95
2023-02-06T14:54:31.137Z,4.18
2023-02-06T14:57:16.663Z,4.07
2023-02-06T15:00:04.355Z,4.50
2023-02-06T15:03:08.269Z,4.30
2023-02-06T15:06:04.841Z,3.78
2023-02-06T15:08:50.883Z,4.15
2023-02-06T15:11:26.730Z,4.10
2023-02-06T15:14:17.401Z,4.50
2023-02-06T15:16:52.366Z,4.68
2023-02-06T15:19:30.569Z,4.50
2023-02-06T15:22:25.168Z,4.50
2023-02-06T15:25:02.814Z,4.68
2023-02-06T15:27:48.966Z,5.63
2023-02-06T15:30:28.403Z,4.75
2023-02-06T15:33:03.007Z,4.35
2023-02-06T15:35:48.516Z,5.47
2023-02-06T15:38:25.652Z,4.90
2023-02-06T15:41:04.309Z,5.35
2023-02-06T15:43:38.064Z,5.43
2023-02-06T15:46:11.785Z,4.93
2023-02-06T15:48:49.006Z,4.70
2023-02-06T15:51:26.079Z,6.00
2023-02-06T15:54:18.508Z,5.97
2023-02-06T15:57:02.679Z,5.32
2023-02-06T15:59:57.138Z,4.70
2023-02-06T16:02:34.268Z,4.57
2023-02-06T16:05:35.908Z,5.35
2023-02-06T16:08:17.855Z,5.75
2023-02-06T16:10:57.390Z,5.22
2023-02-06T16:13:40.503Z,5.93
2023-02-06T16:16:16.648Z,9.20
2023-02-06T16:18:57.436Z,6.30
2023-02-06T16:21:32.521Z,11.30
2023-02-06T16:24:17.619Z,7.15
2023-02-06T16:26:54.844Z,12.35
2023-02-06T16:29:31.728Z,6.40
2023-02-06T16:32:18.800Z,5.18
2023-02-06T16:35:01.514Z,5.70
2023-02-06T16:37:35.136Z,5.53
2023-02-06T16:40:08.062Z,5.30
2023-02-06T16:42:41.865Z,4.72
2023-02-06T16:45:22.929Z,4.60
2023-02-06T16:47:57.471Z,4.95
2023-02-06T16:50:30.259Z,5.43
2023-02-06T16:53:04.026Z,4.90
2023-02-06T16:55:43.279Z,5.20
2023-02-06T16:58:19.968Z,5.43
2023-02-06T17:00:54.680Z,4.93
2023-02-06T17:03:27.051Z,5.78
2023-02-06T17:05:59.842Z,6.55
2023-02-06T17:08:39.797Z,5.95
2023-02-06T17:11:14.062Z,6.30
2023-02-06T17:13:46.956Z,5.80
2023-02-06T17:16:21.976Z,6.32
2023-02-06T17:18:55.617Z,5.40
2023-02-06T17:21:32.698Z,5.63
2023-02-06T17:24:05.437Z,5.68
2023-02-06T17:26:37.760Z,4.95
2023-02-06T17:29:12.901Z,5.00
2023-02-06T17:31:45.299Z,5.53
2023-02-06T17:34:17.896Z,5.40
2023-02-06T17:36:50.130Z,5.05
2023-02-06T17:39:23.261Z,4.88
2023-02-06T17:41:55.539Z,4.97
2023-02-06T17:44:27.818Z,4.38
2023-02-06T17:46:59.966Z,4.57
2023-02-06T17:49:32.215Z,4.40
2023-02-06T17:52:04.812Z,4.95
2023-02-06T17:54:37.377Z,4.18
2023-02-06T17:57:09.609Z,4.38
2023-02-06T17:59:42.179Z,4.65
2023-02-06T18:02:17.107Z,5.10
2023-02-06T18:04:51.181Z,4.20
2023-02-06T18:07:25.044Z,4.20
2023-02-06T18:09:58.038Z,4.63
2023-02-06T18:12:37.856Z,4.57
2023-02-06T18:15:10.710Z,4.90
2023-02-06T18:17:46.547Z,5.07
2023-02-06T18:20:19.859Z,4.70
2023-02-06T18:22:52.582Z,5.15
2023-02-06T18:25:24.766Z,5.40
2023-02-06T18:27:56.892Z,6.38
2023-02-06T18:30:29.341Z,5.88
2023-02-06T18:33:02.237Z,5.60
2023-02-06T18:35:44.518Z,5.90
2023-02-06T18:38:17.758Z,6.28
2023-02-06T18:40:50.310Z,6.00
2023-02-06T18:43:27.637Z,5.78
2023-02-06T18:46:07.589Z,5.50
2023-02-06T18:48:39.818Z,5.25
2023-02-06T18:51:12.020Z,6.13
2023-02-06T18:53:44.504Z,5.82
2023-02-06T18:56:17.001Z,5.82
2023-02-06T18:58:50.073Z,5.30
2023-02-06T19:01:24.639Z,5.50
2023-02-06T19:03:58.277Z,6.88
2023-02-06T19:06:36.833Z,6.10
2023-02-06T19:09:14.836Z,6.05
2023-02-06T19:11:48.865Z,6.93
2023-02-06T19:14:25.748Z,6.32
2023-02-06T19:16:59.786Z,7.10
2023-02-06T19:19:32.890Z,6.90
2023-02-06T19:22:06.615Z,6.68
2023-02-06T19:24:42.798Z,5.78
2023-02-06T19:27:16.393Z,6.10
2023-02-06T19:29:50.102Z,5.70
2023-02-06T19:32:24.614Z,6.13
2023-02-06T19:35:00.288Z,5.63
2023-02-06T19:37:33.991Z,6.05
2023-02-06T19:40:07.822Z,5.53
2023-02-06T19:42:41.554Z,6.07
2023-02-06T19:45:14.597Z,5.63
2023-02-06T19:47:47.993Z,5.57
2023-02-06T19:50:20.999Z,5.55
2023-02-06T19:52:54.146Z,6.22
2023-02-06T19:55:28.096Z,7.03
2023-02-06T19:58:01.128Z,6.30
2023-02-06T20:00:33.828Z,6.15
2023-02-06T20:03:08.071Z,6.30
2023-02-06T20:05:40.928Z,6.90
2023-02-06T20:08:19.432Z,10.80
2023-02-06T20:10:54.088Z,6.25
2023-02-06T20:13:28.470Z,6.75
2023-02-06T20:16:04.337Z,5.75
2023-02-06T20:18:47.260Z,6.72
2023-02-06T20:21:38.760Z,7.00
2023-02-06T20:24:21.229Z,6.50
2023-02-06T20:27:03.164Z,6.38
2023-02-06T20:29:41.872Z,6.65
2023-02-06T20:32:16.741Z,6.65
2023-02-06T20:34:50.443Z,6.47
2023-02-06T20:37:23.131Z,7.10
2023-02-06T20:39:56.164Z,6.30
2023-02-06T20:42:32.231Z,6.60
2023-02-06T20:45:06.842Z,6.75
2023-02-06T20:47:39.935Z,7.20
2023-02-06T20:50:13.885Z,6.85
2023-02-06T20:52:47.712Z,7.95
2023-02-06T20:55:20.958Z,6.90
2023-02-06T20:57:53.188Z,7.45
2023-02-06T21:00:25.933Z,8.00
2023-02-06T21:02:58.792Z,7.05
2023-02-06T21:05:32.778Z,7.70
2023-02-06T21:08:05.697Z,6.85
2023-02-06T21:10:38.767Z,7.78
2023-02-06T21:13:11.365Z,7.57
2023-02-06T21:15:49.007Z,7.60
2023-02-06T21:18:24.388Z,7.55
2023-02-06T21:21:11.399Z,7.95
2023-02-06T21:23:47.881Z,7.85
2023-02-06T21:26:24.098Z,8.32
2023-02-06T21:29:00.215Z,8.45
2023-02-06T21:31:38.135Z,6.85
2023-02-06T21:34:15.064Z,7.53
2023-02-06T21:36:51.232Z,8.05
2023-02-06T21:39:27.348Z,7.43
2023-02-06T21:42:02.203Z,7.18
2023-02-06T21:44:37.444Z,7.57
2023-02-06T21:47:10.031Z,6.80
2023-02-06T21:49:42.558Z,7.65
2023-02-06T21:52:14.813Z,6.80
2023-02-06T21:54:46.995Z,8.05
2023-02-06T21:57:19.114Z,7.25
2023-02-06T21:59:51.310Z,8.05
2023-02-06T22:02:23.745Z,11.95
2023-02-06T22:04:56.233Z,11.60
2023-02-06T22:07:30.675Z,8.23
2023-02-06T22:10:06.543Z,7.55
2023-02-06T22:12:39.823Z,7.70
2023-02-06T22:15:12.019Z,7.00
2023-02-06T22:17:44.236Z,8.15
2023-02-06T22:20:17.262Z,7.60
2023-02-06T22:22:49.751Z,7.85
2023-02-06T22:25:21.992Z,7.25
2023-02-06T22:27:54.615Z,7.97
2023-02-06T22:30:27.000Z,8.32
2023-02-06T22:32:59.078Z,8.10
2023-02-06T22:35:31.186Z,7.80
2023-02-06T22:38:03.188Z,8.88
2023-02-06T22:40:35.419Z,7.43
2023-02-06T22:43:07.796Z,8.15
2023-02-06T22:45:40.120Z,8.50
2023-02-06T22:48:12.607Z,7.90
2023-02-06T22:50:45.015Z,7.80
2023-02-06T22:53:32.577Z,7.57
2023-02-06T22:56:26.760Z,8.52
2023-02-06T22:59:24.987Z,8.07
2023-02-06T23:01:58.780Z,7.75
2023-02-06T23:04:34.752Z,8.70
2023-02-06T23:07:09.377Z,8.23
2023-02-06T23:09:41.616Z,9.00
2023-02-06T23:12:13.809Z,8.27
2023-02-06T23:14:47.009Z,8.73
2023-02-06T23:17:19.088Z,8.38
2023-02-06T23:19:51.187Z,8.55
2023-02-06T23:22:23.149Z,8.55
2023-02-06T23:24:55.215Z,8.60
2023-02-06T23:27:29.246Z,8.95
2023-02-06T23:30:01.645Z,8.30
2023-02-06T23:32:33.828Z,9.18
2023-02-06T23:35:07.048Z,9.90
2023-02-06T23:37:39.302Z,9.10
2023-02-06T23:40:11.466Z,9.07
2023-02-06T23:42:44.125Z,9.20
2023-02-06T23:45:16.345Z,8.70
2023-02-06T23:47:48.505Z,9.70
2023-02-06T23:50:21.884Z,8.70
2023-02-06T23:52:55.464Z,8.02
2023-02-06T23:55:28.499Z,7.15
2023-02-06T23:58:01.543Z,6.63
